Time;durP1;ratioP1;P1;durP2;ratioP2;P2;SDS_P1;SDS_P2;PMS_P1;PMS_P2;Temp;Humidity;BMP_temperature;BMP_pressure;BME280_temperature;BME280_humidity;BME280_pressure;Samples;Min_cycle;Max_cycle;Signal;HPM_P1;HPM_P2
2022/10/22 00:00:33;;;;;;;2.37;0.70;;;;;;;15.07;100.00;95166.06;4299871;33;20377;-59
2022/10/22 00:03:00;;;;;;;0.30;0.30;;;;;;;15.13;100.00;95170.91;4302623;33;20193;-59
2022/10/22 00:05:28;;;;;;;0.50;0.50;;;;;;;15.06;100.00;95175.97;4302588;33;20206;-59
2022/10/22 00:07:53;;;;;;;0.33;0.20;;;;;;;15.01;100.00;95167.38;4299681;33;20217;-59
2022/10/22 00:10:20;;;;;;;0.63;0.63;;;;;;;15.07;100.00;95164.19;4314270;33;20249;-59
2022/10/22 00:12:47;;;;;;;0.40;0.40;;;;;;;15.15;100.00;95173.25;4299357;33;20210;-59
2022/10/22 00:15:16;;;;;;;0.50;0.50;;;;;;;14.99;100.00;95177.59;4312039;33;20224;-59
2022/10/22 00:17:48;;;;;;;0.70;0.70;;;;;;;14.99;100.00;95174.91;4334102;32;20242;-61
2022/10/22 00:20:15;;;;;;;0.50;0.50;;;;;;;14.99;100.00;95178.38;4305966;32;20195;-59
2022/10/22 00:22:43;;;;;;;0.40;0.40;;;;;;;15.02;100.00;95175.06;4303460;33;20197;-59
2022/10/22 00:25:11;;;;;;;0.33;0.33;;;;;;;14.97;100.00;95175.25;4319489;32;20212;-59
2022/10/22 00:27:38;;;;;;;0.50;0.50;;;;;;;15.01;100.00;95173.50;4311605;32;20206;-58
2022/10/22 00:30:04;;;;;;;1.23;0.90;;;;;;;15.04;100.00;95178.19;4332512;32;20185;-59
2022/10/22 00:32:31;;;;;;;0.50;0.50;;;;;;;14.98;100.00;95179.47;4347020;32;20185;-59
2022/10/22 00:35:00;;;;;;;0.77;0.77;;;;;;;14.93;100.00;95173.56;4334919;32;20256;-59
2022/10/22 00:37:29;;;;;;;0.37;0.37;;;;;;;14.93;100.00;95187.69;4335055;32;20181;-59
2022/10/22 00:39:55;;;;;;;0.87;0.50;;;;;;;14.97;100.00;95193.94;4332329;32;20212;-60
2022/10/22 00:42:26;;;;;;;0.20;0.20;;;;;;;14.91;100.00;95216.63;4299477;32;20255;-58
2022/10/22 00:45:24;;;;;;;0.20;0.20;;;;;;;14.86;100.00;95224.81;4329192;32;20193;-59
2022/10/22 00:48:03;;;;;;;0.47;0.47;;;;;;;14.87;100.00;95230.94;4317239;32;20256;-58
2022/10/22 00:50:45;;;;;;;0.40;0.40;;;;;;;14.81;100.00;95238.34;4261972;33;20204;-58
2022/10/22 00:53:14;;;;;;;0.30;0.30;;;;;;;14.71;100.00;95250.19;4261789;33;20257;-59
2022/10/22 00:55:44;;;;;;;0.53;0.53;;;;;;;14.70;100.00;95253.19;4295045;33;20178;-58
2022/10/22 00:58:20;;;;;;;0.27;0.27;;;;;;;14.74;100.00;95251.44;4311967;33;20202;-58
2022/10/22 01:00:47;;;;;;;0.73;0.73;;;;;;;14.60;100.00;95242.84;4299142;33;20206;-60
2022/10/22 01:03:18;;;;;;;3.40;0.53;;;;;;;14.51;100.00;95234.88;4317291;33;20239;-59
2022/10/22 01:06:05;;;;;;;0.30;0.30;;;;;;;14.71;100.00;95236.06;4308934;33;20208;-59
2022/10/22 01:09:26;;;;;;;0.33;0.33;;;;;;;14.63;100.00;95240.31;4312175;33;20283;-59
2022/10/22 01:12:32;;;;;;;0.03;0.03;;;;;;;14.67;100.00;95235.91;4294874;33;20360;-58
2022/10/22 01:15:07;;;;;;;0.33;0.20;;;;;;;14.56;100.00;95231.22;4288063;33;20193;-58
2022/10/22 01:18:13;;;;;;;0.07;0.07;;;;;;;14.52;100.00;95233.00;4299447;33;20190;-58
2022/10/22 01:21:13;;;;;;;0.10;0.10;;;;;;;14.43;100.00;95233.78;4289591;33;20198;-58
2022/10/22 01:24:09;;;;;;;0.53;0.53;;;;;;;14.50;100.00;95227.19;4274431;33;20187;-59
2022/10/22 01:27:17;;;;;;;2.97;0.70;;;;;;;14.52;100.00;95225.78;4253492;33;20195;-58
2022/10/22 01:30:03;;;;;;;0.40;0.40;;;;;;;14.49;100.00;95225.62;4244907;33;20232;-58
2022/10/22 01:32:35;;;;;;;0.30;0.30;;;;;;;14.48;100.00;95222.16;4244215;33;20229;-58
2022/10/22 01:35:10;;;;;;;0.30;0.30;;;;;;;14.60;100.00;95221.47;4254488;33;20246;-58
2022/10/22 01:37:48;;;;;;;0.30;0.30;;;;;;;14.65;100.00;95218.62;4258018;33;20336;-59
2022/10/22 01:40:16;;;;;;;0.77;0.60;;;;;;;14.53;100.00;95219.31;4223169;33;20183;-59
2022/10/22 01:42:41;;;;;;;4.90;0.70;;;;;;;14.52;100.00;95225.78;4254182;33;20203;-58
2022/10/22 01:45:13;;;;;;;0.30;0.30;;;;;;;14.48;100.00;95227.50;4306035;33;20213;-59
2022/10/22 01:48:14;;;;;;;0.27;0.27;;;;;;;14.40;100.00;95231.75;4312503;33;20194;-59
2022/10/22 01:51:19;;;;;;;1.80;0.50;;;;;;;14.41;100.00;95224.53;4313521;33;20194;-59
2022/10/22 01:54:20;;;;;;;0.07;0.07;;;;;;;14.49;100.00;95230.97;4306366;33;20257;-59
2022/10/22 01:57:11;;;;;;;0.20;0.20;;;;;;;14.46;100.00;95243.06;4291826;33;20185;-59
2022/10/22 01:59:46;;;;;;;0.30;0.30;;;;;;;14.55;100.00;95227.78;4311511;32;20198;-58
2022/10/22 02:02:36;;;;;;;14.80;0.53;;;;;;;14.44;100.00;95229.25;4319464;32;20193;-59
2022/10/22 02:05:39;;;;;;;0.40;0.37;;;;;;;14.40;100.00;95234.44;4308878;33;21576;-59
2022/10/22 02:08:09;;;;;;;0.40;0.40;;;;;;;14.52;100.00;95241.00;4307068;33;20201;-59
2022/10/22 02:10:42;;;;;;;0.60;0.60;;;;;;;14.36;100.00;95243.34;4326143;32;20196;-59
2022/10/22 02:13:12;;;;;;;0.10;0.10;;;;;;;14.38;100.00;95241.94;4310396;32;20246;-58
2022/10/22 02:15:41;;;;;;;0.30;0.30;;;;;;;14.36;100.00;95244.13;4294193;33;20183;-59
2022/10/22 02:18:08;;;;;;;0.13;0.13;;;;;;;14.39;100.00;95251.50;4284350;33;20300;-59
2022/10/22 02:20:36;;;;;;;0.43;0.43;;;;;;;14.28;100.00;95260.97;4312457;33;20207;-59
2022/10/22 02:23:04;;;;;;;1.27;0.50;;;;;;;14.32;100.00;95258.47;4301124;33;20240;-58
2022/10/22 02:25:35;;;;;;;0.20;0.20;;;;;;;14.40;100.00;95262.97;4287361;33;20189;-59
2022/10/22 02:28:24;;;;;;;0.57;0.43;;;;;;;14.33;100.00;95263.47;4276620;33;20297;-59
2022/10/22 02:30:59;;;;;;;0.67;0.57;;;;;;;14.32;100.00;95280.59;4280303;33;20219;-59
2022/10/22 02:33:35;;;;;;;1.70;0.73;;;;;;;14.28;100.00;95279.66;4302927;32;20285;-58
2022/10/22 02:36:05;;;;;;;0.17;0.17;;;;;;;14.28;100.00;95292.22;4329709;32;20236;-59
2022/10/22 02:38:33;;;;;;;0.20;0.20;;;;;;;14.15;100.00;95293.16;4259770;33;20191;-58
2022/10/22 02:41:00;;;;;;;1.30;0.20;;;;;;;14.23;100.00;95292.38;4287076;33;20249;-58
2022/10/22 02:43:28;;;;;;;1.27;0.93;;;;;;;14.20;100.00;95298.34;4295155;33;20275;-58
2022/10/22 02:45:55;;;;;;;0.07;0.07;;;;;;;14.27;100.00;95298.66;4305747;33;20205;-59
2022/10/22 02:48:21;;;;;;;2.10;0.50;;;;;;;14.21;100.00;95311.38;4309289;33;20241;-58
2022/10/22 02:50:49;;;;;;;0.20;0.20;;;;;;;14.19;100.00;95313.56;4318387;33;20193;-59
2022/10/22 02:53:14;;;;;;;0.33;0.33;;;;;;;14.23;100.00;95311.84;4307317;33;20194;-59
2022/10/22 02:55:40;;;;;;;0.10;0.10;;;;;;;14.25;100.00;95312.31;4303216;33;20244;-59
2022/10/22 02:58:06;;;;;;;0.10;0.10;;;;;;;14.21;100.00;95318.59;4313416;33;20217;-59
2022/10/22 03:00:33;;;;;;;0.23;0.23;;;;;;;14.25;100.00;95306.97;4325141;33;20340;-58
2022/10/22 03:03:00;;;;;;;0.80;0.40;;;;;;;14.19;100.00;95302.88;4295290;33;20234;-59
2022/10/22 03:05:27;;;;;;;0.47;0.47;;;;;;;14.20;100.00;95293.78;4282496;33;20221;-59
2022/10/22 03:07:54;;;;;;;0.10;0.10;;;;;;;14.23;100.00;95300.38;4319200;32;20201;-59
2022/10/22 03:10:20;;;;;;;0.30;0.30;;;;;;;14.29;100.00;95307.91;4306959;33;20197;-59
2022/10/22 03:12:47;;;;;;;0.27;0.27;;;;;;;14.28;100.00;95289.53;4302621;33;20285;-60
2022/10/22 03:15:12;;;;;;;0.93;0.70;;;;;;;14.41;100.00;95300.06;4280298;33;20209;-64
2022/10/22 03:17:38;;;;;;;0.27;0.27;;;;;;;14.42;100.00;95304.28;4284989;33;20258;-58
2022/10/22 03:20:04;;;;;;;0.20;0.20;;;;;;;14.39;100.00;95288.88;4288397;33;20220;-59
2022/10/22 03:22:33;;;;;;;0.17;0.17;;;;;;;14.30;100.00;95293.47;4303543;33;20191;-58
2022/10/22 03:25:10;;;;;;;0.23;0.23;;;;;;;14.36;100.00;95302.84;4299175;32;20252;-59
2022/10/22 03:27:38;;;;;;;0.40;0.40;;;;;;;14.41;100.00;95300.06;4267521;33;20205;-59
2022/10/22 03:30:17;;;;;;;0.10;0.10;;;;;;;14.33;100.00;95306.19;4322111;33;20193;-58
2022/10/22 03:32:44;;;;;;;0.30;0.30;;;;;;;14.30;100.00;95312.16;4320260;33;20197;-59
2022/10/22 03:35:11;;;;;;;0.40;0.40;;;;;;;14.27;100.00;95317.34;4294506;33;20245;-59
2022/10/22 03:37:41;;;;;;;0.40;0.40;;;;;;;14.12;100.00;95323.94;4302172;33;20186;-58
2022/10/22 03:40:08;;;;;;;0.10;0.10;;;;;;;14.08;100.00;95331.78;4281618;33;20201;-59
2022/10/22 03:42:35;;;;;;;0.10;0.10;;;;;;;14.06;100.00;95330.53;4299945;33;20246;-58
2022/10/22 03:45:06;;;;;;;1.40;0.27;;;;;;;14.03;100.00;95331.16;4310657;33;20244;-59
2022/10/22 03:47:33;;;;;;;0.10;0.10;;;;;;;14.05;100.00;95334.28;4338273;32;20220;-59
2022/10/22 03:50:00;;;;;;;2.10;0.40;;;;;;;14.10;100.00;95334.16;4325799;33;20201;-58
2022/10/22 03:52:28;;;;;;;0.20;0.20;;;;;;;14.02;100.00;95357.03;4323869;32;20194;-59
2022/10/22 03:54:55;;;;;;;0.10;0.10;;;;;;;13.93;100.00;95366.91;4313467;33;20214;-59
2022/10/22 03:57:22;;;;;;;0.20;0.20;;;;;;;13.84;100.00;95360.03;4325274;32;20193;-59
2022/10/22 03:59:49;;;;;;;0.10;0.10;;;;;;;13.73;100.00;95362.19;4320515;32;20212;-58
2022/10/22 04:02:15;;;;;;;0.00;0.00;;;;;;;13.71;100.00;95364.41;4307128;33;20280;-58
2022/10/22 04:04:41;;;;;;;0.00;0.00;;;;;;;13.62;100.00;95371.59;4308601;33;20239;-58
2022/10/22 04:07:08;;;;;;;0.20;0.20;;;;;;;13.70;100.00;95362.84;4313363;33;20189;-59
2022/10/22 04:09:34;;;;;;;1.90;0.53;;;;;;;13.71;100.00;95362.53;4309918;32;20216;-58
2022/10/22 04:12:00;;;;;;;0.53;0.37;;;;;;;13.54;100.00;95362.47;4308769;33;20198;-59
2022/10/22 04:14:27;;;;;;;0.20;0.10;;;;;;;13.62;100.00;95367.03;4300260;33;20236;-58
2022/10/22 04:16:53;;;;;;;0.40;0.40;;;;;;;13.65;100.00;95369.09;4299403;33;20207;-59
2022/10/22 04:19:20;;;;;;;0.40;0.40;;;;;;;13.61;100.00;95360.16;4321722;32;20261;-59
2022/10/22 04:21:47;;;;;;;0.20;0.20;;;;;;;13.61;100.00;95352.16;4309922;33;20208;-59
2022/10/22 04:24:12;;;;;;;0.30;0.30;;;;;;;13.55;100.00;95350.72;4307892;33;20212;-58
2022/10/22 04:26:39;;;;;;;0.00;0.00;;;;;;;13.57;100.00;95347.75;4324783;33;20194;-59
2022/10/22 04:29:07;;;;;;;0.00;0.00;;;;;;;13.45;100.00;95353.69;4333261;32;20246;-58
2022/10/22 04:31:33;;;;;;;0.73;0.50;;;;;;;13.45;100.00;95348.34;4309563;33;20286;-59
2022/10/22 04:34:00;;;;;;;0.33;0.27;;;;;;;13.54;100.00;95351.03;4307980;33;20194;-59
2022/10/22 04:36:27;;;;;;;0.37;0.37;;;;;;;13.63;100.00;95344.63;4294214;32;20190;-59
2022/10/22 04:38:57;;;;;;;0.10;0.10;;;;;;;13.81;100.00;95349.97;4310001;32;20189;-59
2022/10/22 04:41:53;;;;;;;0.67;0.43;;;;;;;13.80;100.00;95345.75;4324870;32;20198;-62
2022/10/22 04:44:20;;;;;;;0.20;0.20;;;;;;;13.65;100.00;95342.44;4311177;33;20191;-59
2022/10/22 04:46:46;;;;;;;0.23;0.23;;;;;;;13.76;100.00;95333.03;4303512;33;20224;-58
2022/10/22 04:49:12;;;;;;;0.00;0.00;;;;;;;13.90;100.00;95332.12;4295539;33;20220;-59
2022/10/22 04:51:39;;;;;;;0.13;0.13;;;;;;;13.83;100.00;95345.13;4307604;33;20190;-59
2022/10/22 04:54:06;;;;;;;0.30;0.30;;;;;;;13.84;100.00;95352.03;4305137;33;20190;-59
2022/10/22 04:56:32;;;;;;;0.10;0.10;;;;;;;13.64;100.00;95351.53;4290666;33;20242;-59
2022/10/22 04:59:06;;;;;;;0.10;0.10;;;;;;;13.64;100.00;95356.88;4297262;33;20201;-59
2022/10/22 05:01:40;;;;;;;0.10;0.10;;;;;;;13.59;100.00;95354.34;4293421;33;20229;-58
2022/10/22 05:04:14;;;;;;;0.10;0.10;;;;;;;13.59;100.00;95357.00;4310271;33;20198;-59
2022/10/22 05:06:42;;;;;;;0.00;0.00;;;;;;;13.52;100.00;95343.34;4318985;33;20197;-59
2022/10/22 05:09:20;;;;;;;0.20;0.20;;;;;;;13.53;100.00;95344.13;4301579;33;20197;-59
2022/10/22 05:11:49;;;;;;;0.03;0.03;;;;;;;13.50;100.00;95350.88;4313621;33;20198;-63
2022/10/22 05:14:20;;;;;;;0.00;0.00;;;;;;;13.46;100.00;95352.59;4295558;33;20251;-59
2022/10/22 05:16:50;;;;;;;1.40;0.50;;;;;;;13.48;100.00;95357.63;4286109;33;20248;-61
2022/10/22 05:19:25;;;;;;;0.00;0.00;;;;;;;13.45;100.00;95342.25;4300151;33;20193;-59
2022/10/22 05:21:55;;;;;;;0.20;0.20;;;;;;;13.49;100.00;95338.66;4315510;32;20197;-58
2022/10/22 05:24:22;;;;;;;0.03;0.03;;;;;;;13.54;100.00;95337.69;4305497;32;20244;-59
2022/10/22 05:26:49;;;;;;;0.43;0.27;;;;;;;13.51;100.00;95341.78;4289984;33;20209;-59
2022/10/22 05:29:15;;;;;;;0.00;0.00;;;;;;;13.42;100.00;95351.63;4288051;33;20186;-59
2022/10/22 05:31:41;;;;;;;0.17;0.17;;;;;;;13.30;100.00;95354.88;4288579;33;20274;-59
2022/10/22 05:34:10;;;;;;;0.23;0.23;;;;;;;13.28;100.00;95356.31;4301897;32;20246;-59
2022/10/22 05:36:36;;;;;;;0.30;0.30;;;;;;;13.37;100.00;95365.88;4325394;32;22594;-58
2022/10/22 05:39:12;;;;;;;4.60;0.30;;;;;;;13.19;99.72;95366.16;4300880;33;20193;-59
2022/10/22 05:41:37;;;;;;;0.27;0.27;;;;;;;13.18;100.00;95370.69;4324781;33;20190;-59
2022/10/22 05:44:06;;;;;;;0.00;0.00;;;;;;;13.19;100.00;95371.47;4280054;32;20336;-59
2022/10/22 05:46:37;;;;;;;0.57;0.33;;;;;;;13.31;100.00;95363.66;4307300;33;20217;-58
2022/10/22 05:49:23;;;;;;;0.00;0.00;;;;;;;13.38;100.00;95364.78;4322108;32;20272;-58
2022/10/22 05:51:50;;;;;;;0.10;0.10;;;;;;;13.25;100.00;95364.91;4304840;32;20209;-59
2022/10/22 05:54:21;;;;;;;0.10;0.10;;;;;;;13.43;99.78;95361.22;4296674;33;20190;-64
2022/10/22 05:56:47;;;;;;;0.40;0.30;;;;;;;13.55;99.30;95361.38;4286593;33;20186;-58
2022/10/22 05:59:15;;;;;;;0.10;0.10;;;;;;;13.40;99.16;95365.28;4300764;32;20182;-60
2022/10/22 06:01:40;;;;;;;0.20;0.20;;;;;;;13.54;99.02;95351.81;4281605;33;20221;-59
2022/10/22 06:04:10;;;;;;;6.40;0.67;;;;;;;13.62;98.48;95356.38;4293922;33;20202;-59
2022/10/22 06:06:39;;;;;;;0.00;0.00;;;;;;;13.47;98.43;95348.06;4305848;33;20287;-59
2022/10/22 06:09:34;;;;;;;0.27;0.27;;;;;;;13.57;98.33;95353.84;4315202;32;20185;-58
2022/10/22 06:12:02;;;;;;;0.00;0.00;;;;;;;13.56;97.74;95365.63;4295127;33;20220;-58
2022/10/22 06:14:31;;;;;;;0.10;0.10;;;;;;;13.57;97.31;95372.53;4312760;33;20212;-58
2022/10/22 06:16:59;;;;;;;0.10;0.10;;;;;;;13.36;97.86;95380.31;4314130;33;20190;-58
2022/10/22 06:19:26;;;;;;;0.13;0.10;;;;;;;13.31;98.79;95377.78;4317226;33;20208;-59
2022/10/22 06:21:54;;;;;;;0.00;0.00;;;;;;;13.50;98.47;95382.87;4282131;33;20186;-59
2022/10/22 06:24:20;;;;;;;0.63;0.30;;;;;;;13.60;98.40;95382.56;4299037;33;20305;-59
2022/10/22 06:26:50;;;;;;;1.93;0.20;;;;;;;13.68;98.40;95389.81;4281554;33;20257;-63
2022/10/22 06:29:17;;;;;;;0.00;0.00;;;;;;;13.82;98.18;95383.53;4296766;33;20201;-59
2022/10/22 06:31:45;;;;;;;0.00;0.00;;;;;;;13.72;98.17;95380.06;4303342;33;20213;-61
2022/10/22 06:34:17;;;;;;;0.13;0.13;;;;;;;13.81;98.14;95400.62;4311080;33;20198;-59
2022/10/22 06:36:47;;;;;;;0.00;0.00;;;;;;;13.86;98.62;95400.50;4315404;33;20198;-59
2022/10/22 06:39:18;;;;;;;0.03;0.03;;;;;;;13.97;97.46;95407.88;4310198;33;20212;-64
2022/10/22 06:41:45;;;;;;;0.00;0.00;;;;;;;13.73;97.48;95408.31;4316299;32;20193;-60
2022/10/22 06:44:17;;;;;;;0.00;0.00;;;;;;;13.91;97.13;95413.69;4299872;33;20212;-58
2022/10/22 06:46:50;;;;;;;0.00;0.00;;;;;;;13.96;96.83;95405.53;4321003;33;20255;-60
2022/10/22 06:49:18;;;;;;;0.00;0.00;;;;;;;13.94;97.23;95413.03;4308040;33;20197;-59
2022/10/22 06:51:44;;;;;;;0.10;0.10;;;;;;;13.89;97.07;95413.22;4279563;33;20193;-59
2022/10/22 06:54:10;;;;;;;0.07;0.00;;;;;;;13.86;97.09;95411.94;4283165;33;20282;-59
2022/10/22 06:56:37;;;;;;;0.13;0.13;;;;;;;14.01;96.80;95402.72;4315270;33;20294;-59
2022/10/22 06:59:04;;;;;;;0.00;0.00;;;;;;;14.06;96.58;95399.91;4319763;33;20289;-59
2022/10/22 07:01:32;;;;;;;0.13;0.13;;;;;;;14.16;95.76;95404.13;4315175;32;20197;-59
2022/10/22 07:04:02;;;;;;;0.00;0.00;;;;;;;14.21;95.30;95407.44;4313506;33;20202;-59
2022/10/22 07:06:30;;;;;;;0.00;0.00;;;;;;;14.10;95.40;95435.53;4319061;33;20236;-59
2022/10/22 07:08:58;;;;;;;0.00;0.00;;;;;;;14.19;95.73;95438.97;4316002;33;20257;-59
2022/10/22 07:11:45;;;;;;;0.00;0.00;;;;;;;14.19;96.24;95435.50;4320120;33;20208;-59
2022/10/22 07:14:11;;;;;;;0.10;0.10;;;;;;;14.09;96.46;95441.97;4290348;33;20201;-59
2022/10/22 07:16:38;;;;;;;0.00;0.00;;;;;;;13.84;97.75;95456.03;4312526;33;20194;-59
2022/10/22 07:19:24;;;;;;;0.10;0.10;;;;;;;13.81;97.92;95465.44;4313874;33;20273;-59
2022/10/22 07:21:51;;;;;;;0.10;0.10;;;;;;;13.70;98.17;95474.81;4305108;33;20257;-59
2022/10/22 07:24:16;;;;;;;0.00;0.00;;;;;;;13.84;98.26;95480.03;4295157;33;20257;-59
2022/10/22 07:26:43;;;;;;;0.00;0.00;;;;;;;13.81;97.75;95496.63;4306177;33;20296;-59
2022/10/22 07:29:09;;;;;;;0.10;0.10;;;;;;;13.84;98.33;95504.81;4310003;33;20223;-59
2022/10/22 07:31:36;;;;;;;28.67;0.53;;;;;;;13.89;97.06;95509.22;4301522;33;20269;-59
2022/10/22 07:34:02;;;;;;;0.10;0.10;;;;;;;13.89;97.16;95518.00;4302750;33;20236;-59
2022/10/22 07:36:29;;;;;;;0.20;0.20;;;;;;;13.87;97.37;95522.06;4315132;33;20204;-59
2022/10/22 07:39:03;;;;;;;0.67;0.20;;;;;;;13.78;97.04;95522.03;4308723;33;20209;-59
2022/10/22 07:41:29;;;;;;;0.33;0.20;;;;;;;13.89;97.52;95519.91;4299675;33;20265;-59
2022/10/22 07:43:56;;;;;;;0.13;0.13;;;;;;;13.91;97.15;95521.16;4293412;33;20190;-59
2022/10/22 07:46:25;;;;;;;0.10;0.10;;;;;;;13.86;97.63;95523.97;4315589;33;20251;-59
2022/10/22 07:48:52;;;;;;;0.00;0.00;;;;;;;13.84;97.71;95530.69;4319922;33;20217;-60
2022/10/22 07:51:20;;;;;;;0.30;0.10;;;;;;;13.95;97.89;95534.63;4325308;32;20198;-60
2022/10/22 07:53:45;;;;;;;0.30;0.30;;;;;;;14.06;97.45;95530.59;4295814;33;20209;-64
2022/10/22 07:56:11;;;;;;;0.17;0.17;;;;;;;14.04;97.33;95527.47;4300482;33;20190;-60
2022/10/22 07:58:37;;;;;;;0.37;0.30;;;;;;;14.05;98.28;95531.72;4311384;33;20194;-59
2022/10/22 08:01:04;;;;;;;0.00;0.00;;;;;;;14.17;97.77;95534.56;4314513;33;20288;-59
2022/10/22 08:03:32;;;;;;;0.20;0.20;;;;;;;14.21;96.97;95532.84;4310400;33;20190;-59
2022/10/22 08:05:59;;;;;;;0.20;0.20;;;;;;;14.18;96.83;95552.13;4314845;33;20190;-59
2022/10/22 08:08:25;;;;;;;0.30;0.30;;;;;;;14.11;96.95;95551.81;4277080;33;20186;-59
2022/10/22 08:10:53;;;;;;;0.20;0.20;;;;;;;14.23;96.89;95548.53;4323476;32;20229;-60
2022/10/22 08:13:20;;;;;;;0.10;0.10;;;;;;;14.27;96.69;95550.28;4321555;32;20182;-59
2022/10/22 08:15:46;;;;;;;0.10;0.10;;;;;;;14.26;97.55;95551.38;4296557;32;20262;-59
2022/10/22 08:18:13;;;;;;;0.63;0.43;;;;;;;14.30;97.57;95551.56;4303054;33;20189;-62
2022/10/22 08:20:40;;;;;;;0.10;0.10;;;;;;;14.29;97.31;95553.44;4267834;33;20194;-59
2022/10/22 08:23:06;;;;;;;0.83;0.10;;;;;;;14.38;97.34;95567.56;4300765;33;20258;-60
2022/10/22 08:25:32;;;;;;;0.07;0.07;;;;;;;14.44;97.14;95571.69;4275396;33;20229;-59
2022/10/22 08:27:57;;;;;;;0.00;0.00;;;;;;;14.39;96.83;95571.03;4278193;32;20257;-59
2022/10/22 08:30:28;;;;;;;0.10;0.10;;;;;;;14.40;96.72;95581.41;4297222;32;20194;-59
2022/10/22 08:32:56;;;;;;;0.10;0.10;;;;;;;14.44;96.62;95576.25;4288402;33;20209;-59
2022/10/22 08:35:22;;;;;;;0.43;0.43;;;;;;;14.43;96.86;95580.81;4325764;32;20480;-60
2022/10/22 08:37:47;;;;;;;0.10;0.10;;;;;;;14.55;97.05;95582.84;4288179;33;20267;-59
2022/10/22 08:40:37;;;;;;;4.33;0.40;;;;;;;14.67;96.86;95587.59;4308191;33;20202;-61
2022/10/22 08:43:15;;;;;;;0.43;0.37;;;;;;;14.67;96.41;95593.72;4285228;33;20293;-60
2022/10/22 08:46:05;;;;;;;0.00;0.00;;;;;;;14.77;96.27;95595.31;4313039;33;20241;-59
2022/10/22 08:48:42;;;;;;;8.03;1.70;;;;;;;14.77;96.99;95601.44;4297545;32;20194;-61
2022/10/22 08:51:20;;;;;;;1.53;1.10;;;;;;;14.97;100.00;95600.03;4308755;32;20206;-61
2022/10/22 08:54:29;;;;;;;15.50;1.37;;;;;;;15.25;100.00;95597.03;4281228;33;20253;-64
2022/10/22 08:57:21;;;;;;;0.67;0.67;;;;;;;15.29;100.00;95606.81;4268070;33;20225;-61
2022/10/22 09:00:20;;;;;;;0.63;0.63;;;;;;;15.27;100.00;95603.66;4304245;32;20205;-61
2022/10/22 09:03:26;;;;;;;0.60;0.60;;;;;;;15.27;100.00;95602.87;4316902;32;20244;-62
2022/10/22 09:06:07;;;;;;;0.40;0.40;;;;;;;15.52;100.00;95606.62;4326225;32;20201;-62
2022/10/22 09:08:35;;;;;;;0.73;0.67;;;;;;;15.57;100.00;95617.97;4317142;32;20332;-62
2022/10/22 09:11:05;;;;;;;0.33;0.33;;;;;;;15.66;100.00;95610.72;4270459;33;20189;-61
2022/10/22 09:13:33;;;;;;;1.27;0.80;;;;;;;15.72;99.70;95622.03;4310087;33;20183;-62
2022/10/22 09:16:34;;;;;;;0.40;0.40;;;;;;;15.63;98.62;95624.72;4313554;33;20190;-61
2022/10/22 09:19:29;;;;;;;0.67;0.67;;;;;;;15.56;97.72;95623.63;4303496;33;20212;-61
2022/10/22 09:22:17;;;;;;;2.43;0.83;;;;;;;15.57;99.91;95623.31;4300064;33;20189;-62
2022/10/22 09:24:51;;;;;;;3.40;1.03;;;;;;;15.72;100.00;95625.50;4283205;33;20262;-61
2022/10/22 09:27:25;;;;;;;4.33;1.37;;;;;;;15.72;99.53;95630.84;4292689;33;20281;-61
2022/10/22 09:29:50;;;;;;;1.07;0.70;;;;;;;15.61;98.61;95629.59;4311539;33;20224;-62
2022/10/22 09:32:16;;;;;;;0.50;0.50;;;;;;;15.71;98.50;95634.63;4297904;33;20201;-62
2022/10/22 09:34:50;;;;;;;0.20;0.20;;;;;;;15.74;98.31;95627.84;4290831;33;20209;-62
2022/10/22 09:37:18;;;;;;;0.43;0.43;;;;;;;15.73;95.54;95637.75;4311159;33;20185;-62
2022/10/22 09:39:47;;;;;;;0.20;0.20;;;;;;;15.87;97.59;95634.91;4307183;32;20186;-61
2022/10/22 09:42:16;;;;;;;0.13;0.13;;;;;;;15.70;96.72;95642.97;4325616;33;20185;-60
2022/10/22 09:44:42;;;;;;;0.30;0.30;;;;;;;15.78;96.73;95647.53;4314608;32;20205;-61
2022/10/22 09:47:55;;;;;;;0.30;0.30;;;;;;;15.77;96.50;95638.72;4329795;32;20189;-61
2022/10/22 09:50:47;;;;;;;2.23;0.50;;;;;;;15.88;97.29;95635.69;4322014;32;20222;-61
2022/10/22 09:53:45;;;;;;;0.40;0.40;;;;;;;15.88;96.02;95633.78;4305403;33;20201;-61
2022/10/22 09:56:40;;;;;;;0.37;0.37;;;;;;;15.62;94.97;95641.06;4313984;32;20209;-45
2022/10/22 09:59:17;;;;;;;0.50;0.50;;;;;;;16.20;100.00;95643.16;4313608;33;20204;-46
2022/10/22 10:01:43;;;;;;;1.03;0.73;;;;;;;15.96;98.07;95650.94;4292400;33;20205;-53
2022/10/22 10:04:17;;;;;;;0.07;0.07;;;;;;;16.26;99.24;95641.84;4314189;33;20193;-45
2022/10/22 10:07:01;;;;;;;0.53;0.53;;;;;;;16.18;96.88;95655.28;4285063;32;20210;-57
2022/10/22 10:09:30;;;;;;;0.80;0.80;;;;;;;16.38;94.24;95652.69;4339357;32;20189;-45
2022/10/22 10:12:18;;;;;;;0.20;0.20;;;;;;;16.43;96.15;95654.38;4337836;32;20208;-48
2022/10/22 10:15:02;;;;;;;1.77;1.20;;;;;;;16.13;92.39;95653.56;4329048;32;20192;-47
2022/10/22 10:17:47;;;;;;;0.70;0.70;;;;;;;16.67;96.74;95643.88;4322724;32;20200;-44
2022/10/22 10:20:37;;;;;;;0.47;0.47;;;;;;;16.89;96.03;95645.50;4324165;32;20193;-45
2022/10/22 10:23:44;;;;;;;0.50;0.50;;;;;;;17.04;94.69;95642.22;4326756;32;20373;-44
2022/10/22 10:26:34;;;;;;;0.27;0.27;;;;;;;17.30;93.64;95644.72;4328120;32;20197;-47
2022/10/22 10:29:33;;;;;;;0.23;0.23;;;;;;;17.34;90.41;95647.53;4313332;32;20212;-46
2022/10/22 10:32:48;;;;;;;0.17;0.17;;;;;;;17.18;87.74;95642.00;4315121;33;20217;-45
2022/10/22 10:35:55;;;;;;;0.23;0.23;;;;;;;17.43;89.37;95642.91;4285998;33;20193;-62
2022/10/22 10:38:58;;;;;;;0.20;0.20;;;;;;;17.57;87.88;95648.78;4308862;33;20189;-60
2022/10/22 10:41:29;;;;;;;0.20;0.20;;;;;;;17.29;86.56;95645.06;4296197;33;20201;-59
2022/10/22 10:44:39;;;;;;;0.10;0.10;;;;;;;16.94;87.05;95645.31;4294725;33;20219;-59
2022/10/22 10:47:49;;;;;;;0.30;0.30;;;;;;;16.89;88.23;95634.00;4297098;33;20322;-60
2022/10/22 10:50:39;;;;;;;0.20;0.20;;;;;;;16.88;88.55;95635.88;4288457;33;20226;-60
2022/10/22 10:53:37;;;;;;;0.53;0.50;;;;;;;16.65;88.69;95630.03;4302940;33;20204;-60
2022/10/22 10:56:43;;;;;;;0.90;0.50;;;;;;;16.68;89.26;95623.25;4319685;33;20292;-60
2022/10/22 10:59:27;;;;;;;0.20;0.20;;;;;;;16.65;89.56;95632.72;4300031;33;20193;-61
2022/10/22 11:02:10;;;;;;;0.20;0.20;;;;;;;16.53;90.15;95626.47;4313782;32;20263;-60
2022/10/22 11:05:15;;;;;;;0.33;0.33;;;;;;;16.43;89.53;95623.03;4299356;33;20198;-60
2022/10/22 11:07:46;;;;;;;1.60;0.30;;;;;;;16.35;89.92;95618.50;4316565;33;20251;-59
2022/10/22 11:10:49;;;;;;;0.40;0.40;;;;;;;16.30;90.13;95629.41;4265586;33;20209;-60
2022/10/22 11:13:46;;;;;;;0.27;0.27;;;;;;;16.20;90.77;95624.41;4284842;33;20297;-59
2022/10/22 11:16:49;;;;;;;0.47;0.47;;;;;;;16.16;90.56;95628.84;4281690;33;20253;-60
2022/10/22 11:19:17;;;;;;;0.37;0.37;;;;;;;16.14;90.82;95620.34;4287080;32;20269;-60
2022/10/22 11:22:22;;;;;;;0.10;0.10;;;;;;;16.11;91.49;95615.62;4326179;33;20202;-60
2022/10/22 11:25:04;;;;;;;0.23;0.23;;;;;;;15.99;90.85;95612.84;4237425;33;20202;-60
2022/10/22 11:27:39;;;;;;;1.40;0.37;;;;;;;16.03;89.96;95617.22;4282731;33;20209;-60
2022/10/22 11:30:12;;;;;;;0.50;0.40;;;;;;;16.14;89.37;95620.34;4284085;33;20217;-60
2022/10/22 11:32:42;;;;;;;0.13;0.13;;;;;;;16.14;90.85;95625.69;4285903;33;20198;-60
2022/10/22 11:35:14;;;;;;;0.20;0.20;;;;;;;16.13;91.00;95618.75;4288979;32;20189;-60
2022/10/22 11:37:46;;;;;;;0.47;0.30;;;;;;;16.20;89.79;95612.91;4292590;32;20186;-60
2022/10/22 11:40:21;;;;;;;0.70;0.50;;;;;;;16.14;90.76;95614.97;4308369;32;20194;-60
2022/10/22 11:42:56;;;;;;;0.27;0.27;;;;;;;16.21;90.24;95609.88;4288744;32;20205;-60
2022/10/22 11:45:29;;;;;;;0.33;0.33;;;;;;;16.22;90.30;95606.09;4267241;33;20244;-59
2022/10/22 11:48:17;;;;;;;0.40;0.20;;;;;;;16.30;89.16;95605.28;4285105;33;20256;-60
2022/10/22 11:51:01;;;;;;;0.63;0.57;;;;;;;16.32;89.65;95603.09;4319043;33;20240;-59
2022/10/22 11:53:36;;;;;;;0.10;0.10;;;;;;;16.48;87.93;95598.75;4299022;33;20193;-59
2022/10/22 11:56:22;;;;;;;0.10;0.10;;;;;;;16.60;87.77;95602.63;4296606;33;20205;-59
2022/10/22 11:58:53;;;;;;;0.60;0.60;;;;;;;16.63;87.55;95599.28;4304901;33;20194;-59
2022/10/22 12:01:55;;;;;;;0.60;0.50;;;;;;;16.74;87.84;95606.66;4314365;33;20215;-59
2022/10/22 12:04:41;;;;;;;0.10;0.10;;;;;;;16.87;84.29;95596.00;4295469;33;20245;-59